Time;durP1;ratioP1;P1;durP2;ratioP2;P2;SDS_P1;SDS_P2;PMS_P1;PMS_P2;Temp;Humidity;BMP_temperature;BMP_pressure;BME280_temperature;BME280_humidity;BME280_pressure;Samples;Min_cycle;Max_cycle;Signal;HPM_P1;HPM_P2
2021/09/16 00:00:20;;;;;;;29.48;17.62;;;;;;;11.18;69.58;100636.69;1671490;85;20973;-51
2021/09/16 00:02:47;;;;;;;23.22;17.27;;;;;;;11.20;69.78;100642.66;1661530;85;21108;-50
2021/09/16 00:05:14;;;;;;;24.87;16.60;;;;;;;11.13;69.86;100639.89;1656225;85;21062;-50
2021/09/16 00:07:42;;;;;;;22.05;16.70;;;;;;;11.05;70.03;100643.48;1659293;85;21082;-49
2021/09/16 00:10:10;;;;;;;27.05;16.40;;;;;;;11.01;70.76;100638.20;1664654;85;21003;-51
2021/09/16 00:12:39;;;;;;;23.92;16.35;;;;;;;10.99;70.52;100646.89;1649586;85;21103;-50
2021/09/16 00:15:10;;;;;;;23.40;16.87;;;;;;;10.99;70.34;100648.73;1654541;85;21083;-50
2021/09/16 00:17:37;;;;;;;24.85;16.37;;;;;;;11.03;70.21;100650.02;1674095;85;21242;-50
2021/09/16 00:20:07;;;;;;;23.45;14.45;;;;;;;11.06;70.25;100643.00;1665048;84;21050;-50
2021/09/16 00:22:35;;;;;;;25.40;16.20;;;;;;;11.04;70.46;100644.51;1661280;85;21345;-51
2021/09/16 00:25:05;;;;;;;27.55;15.98;;;;;;;10.66;70.63;100591.25;1646918;85;21022;-50
2021/09/16 00:27:32;;;;;;;24.65;17.92;;;;;;;10.96;70.73;100644.58;1645004;85;21088;-50
2021/09/16 00:29:58;;;;;;;19.40;15.18;;;;;;;10.93;70.75;100642.81;1648895;85;21011;-52
2021/09/16 00:32:25;;;;;;;25.10;16.67;;;;;;;10.88;70.80;100641.50;1647617;85;21054;-51
2021/09/16 00:34:51;;;;;;;21.33;15.97;;;;;;;10.90;70.77;100643.98;1653593;85;21017;-51
2021/09/16 00:37:18;;;;;;;19.67;15.15;;;;;;;10.97;70.70;100643.58;1655379;85;21114;-50
2021/09/16 00:39:44;;;;;;;;;;;;;;;11.03;70.64;100642.84;1665066;85;21058;-52
2021/09/16 00:42:15;;;;;;;23.65;14.60;;;;;;;11.06;70.51;100642.48;1662252;85;20173;-50
2021/09/16 00:44:44;;;;;;;17.25;14.18;;;;;;;10.97;70.77;100651.58;1654814;85;21087;-50
2021/09/16 00:47:11;;;;;;;24.37;15.18;;;;;;;10.92;70.91;100652.62;1654283;85;21066;-50
2021/09/16 00:49:38;;;;;;;22.35;15.38;;;;;;;10.84;70.95;100655.39;1660495;85;21540;-49
2021/09/16 00:52:07;;;;;;;21.82;15.38;;;;;;;10.78;71.02;100653.46;1661115;85;20975;-50
2021/09/16 00:54:35;;;;;;;25.87;13.93;;;;;;;10.77;71.09;100659.27;1645165;85;21030;-50
2021/09/16 00:57:05;;;;;;;16.93;13.63;;;;;;;10.81;71.17;100665.08;1658446;85;20991;-52
2021/09/16 00:59:36;;;;;;;18.80;14.73;;;;;;;10.81;71.26;100662.41;1651577;85;21114;-50
2021/09/16 01:02:03;;;;;;;22.23;14.97;;;;;;;10.77;71.20;100660.61;1663113;85;21046;-50
2021/09/16 01:04:31;;;;;;;23.00;15.28;;;;;;;10.67;71.41;100658.20;1647886;85;21063;-55
2021/09/16 01:06:59;;;;;;;19.67;14.10;;;;;;;10.61;71.64;100662.94;1654614;85;21078;-52
2021/09/16 01:09:27;;;;;;;21.07;14.65;;;;;;;10.56;71.86;100662.64;1655146;85;21123;-52
2021/09/16 01:11:55;;;;;;;19.97;13.53;;;;;;;10.53;71.92;100659.02;1649736;85;21788;-51
2021/09/16 01:14:26;;;;;;;23.95;13.48;;;;;;;10.59;71.87;100656.14;1638403;85;21018;-50
2021/09/16 01:16:55;;;;;;;20.55;14.60;;;;;;;10.64;71.84;100656.41;1643211;85;21064;-50
2021/09/16 01:19:23;;;;;;;16.23;13.93;;;;;;;10.66;71.99;100651.23;1659779;85;21577;-51
2021/09/16 01:21:50;;;;;;;21.90;15.00;;;;;;;10.67;72.25;100651.54;1657346;85;21085;-51
2021/09/16 01:24:17;;;;;;;19.50;13.80;;;;;;;10.67;72.23;100651.54;1644566;85;21173;-49
2021/09/16 01:26:47;;;;;;;17.37;14.03;;;;;;;10.66;72.40;100653.90;1665676;85;21054;-51
2021/09/16 01:29:15;;;;;;;14.95;13.45;;;;;;;10.69;72.63;100654.03;1646005;85;21016;-50
2021/09/16 01:31:50;;;;;;;18.95;14.60;;;;;;;10.74;72.46;100647.66;1643897;85;21028;-50
2021/09/16 01:34:18;;;;;;;16.93;13.47;;;;;;;10.77;72.47;100646.45;1644452;84;21054;-50
2021/09/16 01:36:48;;;;;;;16.93;12.83;;;;;;;10.72;72.66;100649.69;1673936;85;21022;-49
2021/09/16 01:39:25;;;;;;;15.97;13.37;;;;;;;10.63;72.93;100647.59;1660593;85;21089;-50
2021/09/16 01:41:57;;;;;;;16.43;12.97;;;;;;;10.56;73.12;100643.98;1647472;85;21067;-50
2021/09/16 01:44:24;;;;;;;15.00;12.20;;;;;;;10.50;73.25;100645.53;1653799;84;21042;-50
2021/09/16 01:46:50;;;;;;;;;;;;;;;10.50;73.31;100644.20;1661153;85;21093;-49
2021/09/16 01:49:16;;;;;;;15.33;11.67;;;;;;;10.59;73.32;100645.48;1647274;85;20193;-52
2021/09/16 01:51:43;;;;;;;15.43;12.25;;;;;;;10.65;73.17;100644.75;1660855;85;21026;-51
2021/09/16 01:54:09;;;;;;;16.42;12.95;;;;;;;10.68;73.06;100645.22;1656280;85;21069;-50
2021/09/16 01:56:36;;;;;;;19.77;13.80;;;;;;;10.66;73.01;100640.57;1655308;83;21560;-49
2021/09/16 01:59:02;;;;;;;15.40;11.95;;;;;;;10.64;73.04;100643.08;1651287;85;21129;-53
2021/09/16 02:01:30;;;;;;;16.00;12.23;;;;;;;10.60;73.12;100637.27;1628222;85;21110;-53
2021/09/16 02:03:56;;;;;;;18.20;12.37;;;;;;;10.57;73.10;100640.80;1623562;86;21127;-49
2021/09/16 02:06:22;;;;;;;15.98;12.07;;;;;;;10.59;72.97;100644.97;1623611;86;21130;-50
2021/09/16 02:08:49;;;;;;;13.90;10.18;;;;;;;10.65;72.79;100646.90;1619810;86;21103;-50
2021/09/16 02:11:17;;;;;;;14.50;10.72;;;;;;;10.68;73.01;100641.22;1643398;86;21159;-51
2021/09/16 02:13:43;;;;;;;14.90;10.47;;;;;;;10.71;73.09;100648.02;1630490;86;21085;-51
2021/09/16 02:16:09;;;;;;;13.75;11.38;;;;;;;10.67;73.04;100645.39;1623271;86;21074;-51
2021/09/16 02:18:36;;;;;;;14.70;11.00;;;;;;;10.61;73.15;100650.94;1621901;86;21081;-50
2021/09/16 02:21:02;;;;;;;17.07;11.48;;;;;;;10.52;73.26;100644.03;1620806;86;21077;-49
2021/09/16 02:23:28;;;;;;;19.25;10.38;;;;;;;10.53;73.36;100649.70;1633981;86;21050;-49
2021/09/16 02:25:55;;;;;;;17.75;11.48;;;;;;;10.58;73.27;100653.14;1613939;86;21546;-50
2021/09/16 02:28:21;;;;;;;;;;;;;;;10.57;73.23;100642.98;1583596;88;21723;-51
2021/09/16 02:30:48;;;;;;;23.73;10.30;;;;;;;10.57;73.33;100639.47;1584671;89;20177;-49
2021/09/16 02:33:15;;;;;;;12.97;10.53;;;;;;;10.49;73.61;100632.38;1618696;85;21165;-50
2021/09/16 02:35:41;;;;;;;12.45;10.25;;;;;;;10.46;73.66;100634.09;1617288;87;21106;-50
2021/09/16 02:38:08;;;;;;;16.17;11.50;;;;;;;10.46;73.64;100636.76;1615286;87;21125;-51
2021/09/16 02:40:34;;;;;;;15.05;10.58;;;;;;;10.46;74.06;100634.09;1622094;87;21062;-51
2021/09/16 02:43:02;;;;;;;13.37;10.47;;;;;;;10.49;73.62;100635.90;1610115;87;21121;-50
2021/09/16 02:45:28;;;;;;;14.33;11.05;;;;;;;10.52;73.30;100634.70;1612674;84;21054;-49
2021/09/16 02:47:55;;;;;;;14.47;10.07;;;;;;;10.54;73.28;100636.67;1620806;87;21101;-49
2021/09/16 02:50:22;;;;;;;18.62;10.85;;;;;;;10.54;73.47;100638.52;1614942;87;21676;-49
2021/09/16 02:52:51;;;;;;;17.80;11.05;;;;;;;10.51;73.82;100637.05;1620159;87;21130;-50
2021/09/16 02:55:19;;;;;;;13.48;10.35;;;;;;;10.47;73.58;100634.40;1612455;84;21508;-50
2021/09/16 02:57:46;;;;;;;12.37;11.07;;;;;;;10.40;73.63;100629.49;1626737;87;21124;-50
2021/09/16 03:00:14;;;;;;;12.33;10.20;;;;;;;10.38;73.72;100627.00;1619877;86;21151;-49
2021/09/16 03:02:41;;;;;;;12.10;10.90;;;;;;;10.41;73.92;100629.28;1617553;86;21180;-50
2021/09/16 03:05:09;;;;;;;13.70;10.10;;;;;;;10.37;73.95;100617.34;1634175;86;21579;-51
2021/09/16 03:07:36;;;;;;;15.40;11.17;;;;;;;10.46;73.99;100628.77;1603666;88;21082;-51
2021/09/16 03:10:05;;;;;;;15.70;10.70;;;;;;;10.48;74.00;100624.08;1628166;86;21069;-51
2021/09/16 03:12:32;;;;;;;12.27;10.17;;;;;;;10.48;73.99;100621.41;1639541;85;21025;-50
2021/09/16 03:14:58;;;;;;;13.80;11.43;;;;;;;10.47;74.41;100625.92;1640747;85;21101;-51
2021/09/16 03:17:24;;;;;;;;;;;;;;;10.50;74.74;100620.21;1662286;85;21009;-51
2021/09/16 03:19:52;;;;;;;;;;;;;;;10.53;74.56;100616.37;1663631;85;20467;-50
2021/09/16 03:22:20;;;;;;;14.07;11.23;;;;;;;10.47;74.58;100613.93;1647179;84;20195;-50
2021/09/16 03:24:46;;;;;;;15.90;11.38;;;;;;;10.39;74.86;100607.84;1623394;86;21006;-50
2021/09/16 03:27:14;;;;;;;11.70;10.23;;;;;;;10.42;75.11;100606.97;1618380;86;21123;-51
2021/09/16 03:29:40;;;;;;;15.95;11.60;;;;;;;10.56;75.06;100616.51;1622571;87;21054;-51
2021/09/16 03:32:08;;;;;;;17.33;11.00;;;;;;;10.69;74.90;100628.19;1630522;86;21135;-49
2021/09/16 03:34:34;;;;;;;15.72;10.10;;;;;;;10.85;74.51;100647.70;1629898;86;21069;-49
2021/09/16 03:37:03;;;;;;;19.35;11.38;;;;;;;10.95;74.64;100654.94;1631342;86;21139;-52
2021/09/16 03:39:29;;;;;;;16.45;11.88;;;;;;;10.99;74.44;100650.07;1621099;86;21129;-51
2021/09/16 03:41:56;;;;;;;12.23;10.25;;;;;;;11.03;74.35;100654.84;1622156;86;21169;-51
2021/09/16 03:44:23;;;;;;;16.82;11.43;;;;;;;11.09;74.06;100657.28;1624366;86;21682;-54
2021/09/16 03:46:53;;;;;;;20.17;10.73;;;;;;;11.16;73.92;100652.88;1621024;86;21108;-51
2021/09/16 03:49:19;;;;;;;19.60;11.83;;;;;;;11.20;74.06;100653.34;1591658;88;21493;-50
2021/09/16 03:51:45;;;;;;;17.82;12.33;;;;;;;11.28;73.71;100662.56;1572480;89;21595;-52
2021/09/16 03:54:12;;;;;;;18.20;12.23;;;;;;;11.29;73.73;100658.38;1632502;86;21501;-52
2021/09/16 03:56:38;;;;;;;16.75;11.93;;;;;;;11.32;73.67;100649.20;1640106;85;20970;-51
2021/09/16 03:59:04;;;;;;;14.78;12.05;;;;;;;11.38;73.43;100659.12;1657092;85;21023;-51
2021/09/16 04:01:32;;;;;;;18.10;11.77;;;;;;;11.50;74.08;100660.29;1635928;86;21421;-48
2021/09/16 04:03:58;;;;;;;29.05;15.72;;;;;;;12.23;72.76;100662.97;1624670;86;21072;-47
2021/09/16 04:06:25;;;;;;;14.15;10.93;;;;;;;12.23;72.76;100662.97;1629206;86;21632;-49
2021/09/16 04:08:51;;;;;;;14.45;11.10;;;;;;;12.72;70.66;100679.23;1629669;86;21121;-47
2021/09/16 04:11:17;;;;;;;23.75;12.15;;;;;;;13.11;70.00;100684.03;1632735;85;20998;-49
2021/09/16 04:13:45;;;;;;;17.55;11.50;;;;;;;13.50;68.02;100689.30;1634163;86;21564;-48
2021/09/16 04:16:11;;;;;;;13.98;9.63;;;;;;;13.82;67.20;100688.30;1633063;86;21038;-54
2021/09/16 04:18:37;;;;;;;11.48;10.35;;;;;;;14.13;66.11;100679.73;1618871;86;21046;-49
2021/09/16 04:21:04;;;;;;;15.88;11.28;;;;;;;14.49;64.45;100678.53;1635136;86;21097;-49
2021/09/16 04:23:32;;;;;;;16.40;11.18;;;;;;;14.82;63.44;100676.38;1617069;86;21061;-50
2021/09/16 04:26:00;;;;;;;17.55;11.38;;;;;;;15.19;62.36;100681.58;1617125;86;21134;-49
2021/09/16 04:28:26;;;;;;;17.92;10.23;;;;;;;15.65;61.63;100682.98;1630327;86;21096;-49
2021/09/16 04:30:52;;;;;;;15.43;9.93;;;;;;;16.24;60.08;100682.40;1632030;86;21038;-48
2021/09/16 04:33:20;;;;;;;12.98;9.88;;;;;;;16.88;58.34;100679.94;1616426;85;21308;-47
2021/09/16 04:35:47;;;;;;;12.53;8.98;;;;;;;17.49;56.18;100681.46;1629061;86;21003;-49
2021/09/16 04:38:15;;;;;;;13.80;9.60;;;;;;;18.00;54.83;100680.20;1631959;86;21145;-47
2021/09/16 04:40:44;;;;;;;16.62;10.10;;;;;;;18.53;53.34;100683.16;1632781;86;21068;-48
2021/09/16 04:43:10;;;;;;;16.07;10.30;;;;;;;18.93;51.96;100681.14;1623025;86;21081;-48
2021/09/16 04:45:38;;;;;;;10.90;9.70;;;;;;;19.32;50.89;100674.71;1648016;84;21002;-47
2021/09/16 04:48:05;;;;;;;13.80;10.13;;;;;;;19.72;49.63;100677.94;1661698;85;21554;-48
2021/09/16 04:50:32;;;;;;;12.58;8.68;;;;;;;19.98;48.85;100680.09;1647655;85;21067;-48
2021/09/16 04:52:58;;;;;;;13.43;9.45;;;;;;;19.99;48.13;100677.69;1657489;85;20995;-49
2021/09/16 04:55:25;;;;;;;;;;;;;;;19.74;48.45;100675.84;1654595;85;21097;-48
2021/09/16 04:57:51;;;;;;;;;;;;;;;19.51;48.85;100676.72;1628138;86;20191;-47
2021/09/16 05:00:18;;;;;;;14.53;9.20;;;;;;;19.53;49.13;100681.36;1627140;85;20232;-48
2021/09/16 05:02:44;;;;;;;14.10;9.93;;;;;;;19.75;48.82;100674.80;1647121;85;21141;-52
2021/09/16 05:05:10;;;;;;;14.98;11.15;;;;;;;20.13;48.10;100676.84;1639287;86;20999;-48
2021/09/16 05:07:37;;;;;;;14.25;9.80;;;;;;;20.33;47.47;100665.56;1631359;86;21116;-51
2021/09/16 05:10:07;;;;;;;20.48;9.43;;;;;;;20.61;47.01;100672.01;1643491;86;21037;-51
2021/09/16 05:12:35;;;;;;;15.88;8.28;;;;;;;20.99;46.25;100669.85;1624967;84;21622;-52
2021/09/16 05:15:01;;;;;;;12.82;8.38;;;;;;;21.45;45.98;100671.02;1601756;87;21531;-53
2021/09/16 05:17:27;;;;;;;;;;;;;;;21.88;44.83;100672.59;1611014;87;21203;-53
2021/09/16 05:19:54;;;;;;;8.68;7.55;;;;;;;22.22;44.26;100665.05;1608444;87;20151;-53
2021/09/16 05:22:21;;;;;;;8.43;7.00;;;;;;;22.49;43.91;100662.84;1622863;87;21095;-52
2021/09/16 05:24:48;;;;;;;8.10;7.30;;;;;;;22.81;43.40;100653.84;1620641;86;21073;-55
2021/09/16 05:27:19;;;;;;;8.38;7.33;;;;;;;23.11;42.62;100645.91;1624998;86;21030;-54
2021/09/16 05:31:48;;;;;;;7.25;6.17;;;;;;;23.35;41.98;100645.99;1832635;75;22960;-54
2021/09/16 05:34:16;;;;;;;8.33;6.35;;;;;;;23.45;42.10;100655.54;1778215;77;21020;-53
2021/09/16 05:36:43;;;;;;;7.78;5.70;;;;;;;23.31;42.32;100656.59;1788430;78;21040;-59
2021/09/16 05:39:09;;;;;;;8.70;5.78;;;;;;;22.85;42.76;100654.94;1785382;78;21068;-53
2021/09/16 05:41:36;;;;;;;8.38;6.42;;;;;;;22.27;43.68;100654.27;1786841;78;21160;-53
2021/09/16 05:44:04;;;;;;;6.62;5.90;;;;;;;21.66;45.03;100655.83;1767608;78;21037;-51
2021/09/16 05:46:32;;;;;;;7.28;5.00;;;;;;;21.03;46.06;100658.53;1733984;80;21132;-53
2021/09/16 05:48:59;;;;;;;8.40;4.45;;;;;;;20.69;47.38;100652.62;1727107;80;21339;-54
2021/09/16 05:51:25;;;;;;;10.68;5.28;;;;;;;20.86;48.09;100663.44;1727629;80;21104;-55
2021/09/16 05:53:52;;;;;;;7.40;6.37;;;;;;;21.36;46.89;100659.78;1747220;80;21068;-54
2021/09/16 05:56:19;;;;;;;7.47;6.75;;;;;;;21.94;45.03;100660.19;1713367;80;21584;-55
2021/09/16 05:58:45;;;;;;;6.87;6.17;;;;;;;22.46;43.83;100663.39;1692959;82;21119;-54
2021/09/16 06:01:12;;;;;;;9.80;6.65;;;;;;;22.92;43.00;100659.61;1690478;82;21070;-53
2021/09/16 06:03:40;;;;;;;9.48;5.92;;;;;;;23.31;42.41;100658.75;1688139;82;21021;-55
2021/09/16 06:06:08;;;;;;;7.47;5.22;;;;;;;23.68;40.94;100665.16;1687982;82;21527;-54
2021/09/16 06:08:34;;;;;;;10.65;5.12;;;;;;;24.00;39.45;100668.25;1682328;82;21004;-54
2021/09/16 06:11:01;;;;;;;5.50;4.67;;;;;;;24.31;37.54;100671.00;1674637;85;21097;-52
2021/09/16 06:13:27;;;;;;;4.65;4.22;;;;;;;24.52;36.08;100671.28;1649673;84;21043;-53
2021/09/16 06:15:55;;;;;;;7.83;3.85;;;;;;;24.68;35.75;100668.83;1660586;84;21110;-54
2021/09/16 06:18:24;;;;;;;5.25;4.28;;;;;;;24.94;34.75;100667.42;1629933;86;21189;-54
2021/09/16 06:20:53;;;;;;;7.47;3.98;;;;;;;25.10;34.44;100657.83;1618071;87;21052;-54
2021/09/16 06:23:20;;;;;;;7.55;3.98;;;;;;;25.21;34.19;100661.59;1656328;84;20992;-51
2021/09/16 06:25:48;;;;;;;7.70;3.45;;;;;;;25.40;34.50;100665.11;1677029;83;21122;-54
2021/09/16 06:28:20;;;;;;;7.85;3.25;;;;;;;25.54;31.84;100663.42;1673779;84;21850;-53
2021/09/16 06:30:48;;;;;;;3.02;2.75;;;;;;;25.58;30.46;100663.64;1669016;83;21601;-54
2021/09/16 06:33:15;;;;;;;5.50;3.85;;;;;;;25.40;30.27;100665.11;1671155;83;21602;-54
2021/09/16 06:35:41;;;;;;;3.35;2.50;;;;;;;25.22;31.56;100662.41;1658102;85;21076;-52
2021/09/16 06:38:07;;;;;;;3.08;2.55;;;;;;;25.08;31.37;100663.56;1657428;84;21121;-54
2021/09/16 06:40:34;;;;;;;2.77;2.58;;;;;;;24.78;31.70;100666.63;1653308;85;21101;-54
2021/09/16 06:43:01;;;;;;;3.60;3.27;;;;;;;24.28;32.45;100662.84;1658010;85;21641;-55
2021/09/16 06:45:27;;;;;;;4.97;2.65;;;;;;;23.67;33.16;100668.95;1662730;84;21564;-52
2021/09/16 06:47:53;;;;;;;5.78;2.30;;;;;;;23.15;33.77;100667.95;1666573;84;21031;-55
2021/09/16 06:50:19;;;;;;;3.80;2.22;;;;;;;22.63;34.06;100676.27;1669159;84;21042;-54
2021/09/16 06:52:45;;;;;;;3.70;1.32;;;;;;;22.07;34.93;100670.34;1668906;85;21106;-52
2021/09/16 06:55:12;;;;;;;4.85;1.45;;;;;;;21.68;33.06;100666.40;1684502;84;21061;-52
2021/09/16 06:57:38;;;;;;;1.52;0.95;;;;;;;21.33;32.48;100667.05;1670822;84;21125;-54
2021/09/16 07:00:07;;;;;;;4.55;1.17;;;;;;;21.03;33.62;100670.72;1656290;83;21084;-54
2021/09/16 07:02:34;;;;;;;7.20;2.15;;;;;;;20.73;33.51;100666.49;1686985;82;21061;-52
2021/09/16 07:05:03;;;;;;;4.35;1.82;;;;;;;20.46;34.78;100670.38;1680968;83;21633;-54
2021/09/16 07:07:29;;;;;;;4.22;1.92;;;;;;;20.26;35.71;100677.08;1686755;83;21591;-51
2021/09/16 07:09:55;;;;;;;;;;;;;;;20.14;36.39;100674.45;1660379;85;21014;-53
2021/09/16 07:12:21;;;;;;;0.93;0.82;;;;;;;20.02;34.23;100674.52;1710595;81;20132;-53
2021/09/16 07:14:49;;;;;;;4.80;0.60;;;;;;;19.83;34.87;100678.46;1715636;82;21591;-54
2021/09/16 07:17:15;;;;;;;;;;;;;;;19.74;34.37;100678.05;1719235;82;21121;-53
2021/09/16 07:19:41;;;;;;;3.35;0.98;;;;;;;19.71;34.18;100680.38;1716157;82;20138;-52
2021/09/16 07:22:08;;;;;;;4.03;0.88;;;;;;;19.60;34.06;100686.91;1708908;82;21104;-53
2021/09/16 07:24:36;;;;;;;2.70;0.70;;;;;;;19.61;34.13;100684.52;1703374;82;21043;-53
2021/09/16 07:27:03;;;;;;;2.87;1.32;;;;;;;19.65;34.22;100682.97;1681742;83;21076;-56
2021/09/16 07:29:29;;;;;;;2.65;0.85;;;;;;;19.67;34.19;100680.56;1645075;85;21082;-54
2021/09/16 07:31:57;;;;;;;6.40;0.95;;;;;;;19.68;34.13;100683.55;1668608;84;21070;-55
2021/09/16 07:34:24;;;;;;;3.30;1.30;;;;;;;19.70;34.30;100686.83;1649753;84;21111;-55
2021/09/16 07:36:50;;;;;;;1.92;0.50;;;;;;;19.75;34.88;100687.78;1635041;85;21126;-53
2021/09/16 07:39:19;;;;;;;4.65;1.12;;;;;;;19.83;34.77;100687.42;1670521;84;21049;-55
2021/09/16 07:41:47;;;;;;;3.62;1.02;;;;;;;19.95;34.79;100685.20;1657862;84;21064;-54
2021/09/16 07:44:15;;;;;;;0.80;0.70;;;;;;;20.02;33.76;100690.75;1672030;82;21471;-53
2021/09/16 07:46:43;;;;;;;2.15;0.80;;;;;;;20.02;33.90;100690.75;1731296;81;21115;-53
2021/09/16 07:49:08;;;;;;;0.85;0.85;;;;;;;20.05;33.83;100686.72;1732560;81;21068;-54
2021/09/16 07:51:35;;;;;;;;;;;;;;;20.05;34.10;100685.91;1734802;81;21069;-53
2021/09/16 07:54:01;;;;;;;4.70;0.30;;;;;;;20.07;33.93;100681.89;1733665;81;20151;-55
2021/09/16 07:56:27;;;;;;;;;;;;;;;19.97;33.79;100683.06;1732220;81;21112;-53
2021/09/16 07:58:53;;;;;;;0.50;0.20;;;;;;;19.85;33.75;100687.16;1720310;81;20151;-51
2021/09/16 08:01:21;;;;;;;1.72;0.50;;;;;;;19.74;34.17;100686.16;1730789;81;21598;-54
2021/09/16 08:03:47;;;;;;;1.25;0.55;;;;;;;19.76;34.22;100679.97;1694291;83;21057;-53
2021/09/16 08:06:14;;;;;;;1.80;0.50;;;;;;;19.84;34.51;100685.53;1718740;82;21056;-54
2021/09/16 08:08:42;;;;;;;1.07;0.30;;;;;;;19.92;34.61;100681.61;1700306;83;21152;-54
2021/09/16 08:11:08;;;;;;;;;;;;;;;19.99;34.40;100676.88;1702682;83;21769;-51
2021/09/16 08:13:35;;;;;;;1.52;0.35;;;;;;;20.00;34.42;100679.34;1682241;84;20837;-52
2021/09/16 08:16:03;;;;;;;1.62;0.40;;;;;;;20.00;34.50;100673.09;1719649;82;21546;-53
2021/09/16 08:18:31;;;;;;;1.90;0.40;;;;;;;20.06;34.48;100678.06;1708130;82;21160;-53
2021/09/16 08:20:57;;;;;;;1.17;0.62;;;;;;;20.10;34.49;100676.00;1721034;82;21028;-54
2021/09/16 08:23:24;;;;;;;;;;;;;;;20.15;34.99;100676.61;1720078;82;21048;-55
2021/09/16 08:25:50;;;;;;;2.05;0.88;;;;;;;20.18;35.78;100676.13;1733769;82;20219;-55
2021/09/16 08:28:17;;;;;;;2.00;0.65;;;;;;;20.17;35.84;100682.09;1717357;82;21114;-55
2021/09/16 08:30:44;;;;;;;2.15;1.15;;;;;;;20.22;36.05;100679.98;1723812;82;21078;-52
2021/09/16 08:33:11;;;;;;;6.90;0.75;;;;;;;20.29;36.28;100678.49;1727753;82;21603;-52
2021/09/16 08:35:38;;;;;;;6.85;1.12;;;;;;;20.34;36.48;100677.20;1717366;82;21042;-52
2021/09/16 08:38:04;;;;;;;2.40;0.95;;;;;;;20.34;36.68;100675.34;1715833;82;21077;-52
2021/09/16 08:40:31;;;;;;;2.87;1.00;;;;;;;20.33;36.79;100679.09;1719301;82;21060;-51
2021/09/16 08:42:57;;;;;;;2.22;0.98;;;;;;;20.30;36.59;100672.00;1713509;82;21053;-51
2021/09/16 08:45:24;;;;;;;2.12;1.15;;;;;;;20.24;36.16;100671.09;1731122;80;21056;-54
2021/09/16 08:47:53;;;;;;;2.12;1.10;;;;;;;20.18;36.85;100666.12;1731615;80;21039;-52
2021/09/16 08:50:24;;;;;;;0.85;0.45;;;;;;;20.16;37.15;100677.73;1734249;80;21060;-52
2021/09/16 08:52:52;;;;;;;2.27;1.22;;;;;;;20.16;36.18;100667.44;1738804;80;21044;-54
2021/09/16 08:55:21;;;;;;;4.50;0.82;;;;;;;20.10;36.15;100664.33;1723351;81;21068;-52
2021/09/16 08:57:56;;;;;;;3.27;0.65;;;;;;;20.06;36.36;100674.01;1729980;81;22126;-52
2021/09/16 09:00:23;;;;;;;2.95;1.00;;;;;;;20.07;37.09;100664.84;1703562;81;21109;-53
2021/09/16 09:02:52;;;;;;;1.20;0.62;;;;;;;20.10;36.92;100665.69;1695164;83;21081;-53
2021/09/16 09:05:20;;;;;;;2.02;0.70;;;;;;;20.09;35.94;100665.41;1685978;83;20993;-52
2021/09/16 09:07:51;;;;;;;5.50;0.70;;;;;;;20.09;36.71;100668.94;1692495;83;21014;-52
2021/09/16 09:10:42;;;;;;;1.15;0.75;;;;;;;20.16;37.44;100667.44;1694993;83;21062;-53
2021/09/16 09:13:32;;;;;;;3.55;0.90;;;;;;;20.28;36.85;100661.95;1679244;83;21512;-53
2021/09/16 09:16:05;;;;;;;3.08;0.90;;;;;;;20.39;36.56;100659.70;1667358;83;21054;-51
2021/09/16 09:18:52;;;;;;;1.30;0.75;;;;;;;20.41;36.47;100659.73;1686981;83;21161;-53
2021/09/16 09:21:18;;;;;;;0.90;0.40;;;;;;;20.47;36.42;100659.82;1679274;83;21517;-53
2021/09/16 09:23:54;;;;;;;3.15;0.78;;;;;;;20.59;36.02;100656.52;1649894;83;21573;-52
2021/09/16 09:26:31;;;;;;;3.15;0.60;;;;;;;20.66;35.62;100653.11;1652969;84;21685;-53
2021/09/16 09:29:15;;;;;;;4.75;0.47;;;;;;;20.70;35.84;100654.27;1648035;84;21051;-52
2021/09/16 09:32:08;;;;;;;2.60;0.60;;;;;;;20.74;35.58;100652.70;1668128;84;21626;-52
2021/09/16 09:34:38;;;;;;;3.37;0.80;;;;;;;20.86;35.52;100655.85;1697734;80;21029;-51
2021/09/16 09:37:15;;;;;;;1.10;0.53;;;;;;;20.98;34.84;100660.10;1733604;81;21119;-52
2021/09/16 09:39:47;;;;;;;1.67;0.80;;;;;;;21.09;34.30;100657.52;1728482;81;21021;-54
2021/09/16 09:42:22;;;;;;;1.72;1.20;;;;;;;21.15;34.22;100647.86;1716488;81;21012;-54
2021/09/16 09:44:56;;;;;;;3.20;0.70;;;;;;;21.20;34.37;100649.27;1725078;81;20970;-54
2021/09/16 09:47:44;;;;;;;1.00;0.60;;;;;;;21.28;34.77;100641.77;1732304;81;21047;-51
2021/09/16 09:50:24;;;;;;;2.12;0.55;;;;;;;21.29;34.57;100642.06;1731640;81;21058;-53
2021/09/16 09:52:55;;;;;;;1.65;0.78;;;;;;;21.20;34.86;100633.54;1728314;81;21032;-53
2021/09/16 09:55:24;;;;;;;1.95;1.37;;;;;;;21.17;35.14;100640.30;1730161;81;21535;-52
2021/09/16 09:58:02;;;;;;;5.87;0.93;;;;;;;21.13;34.94;100641.84;1735493;81;21105;-54
2021/09/16 10:00:28;;;;;;;2.20;0.70;;;;;;;21.12;34.87;100635.34;1733963;81;21031;-52
2021/09/16 10:02:56;;;;;;;2.17;1.25;;;;;;;21.14;34.89;100636.72;1741944;81;21072;-53
2021/09/16 10:05:37;;;;;;;2.05;0.90;;;;;;;21.17;34.82;100626.74;1746010;81;21025;-52
2021/09/16 10:08:12;;;;;;;4.97;1.27;;;;;;;21.18;34.79;100626.20;1731641;81;21048;-53
2021/09/16 10:10:50;;;;;;;3.92;0.90;;;;;;;21.14;34.97;100624.53;1735722;81;21013;-52
2021/09/16 10:13:19;;;;;;;7.60;1.00;;;;;;;21.08;35.13;100625.54;1719932;81;21094;-51
2021/09/16 10:15:49;;;;;;;3.55;0.40;;;;;;;21.08;35.90;100621.98;1673381;84;21466;-53
2021/09/16 10:18:17;;;;;;;1.25;0.42;;;;;;;21.12;35.68;100623.15;1743254;80;21069;-51
2021/09/16 10:20:46;;;;;;;0.60;0.33;;;;;;;21.14;35.12;100617.75;1737770;81;20993;-52
2021/09/16 10:23:14;;;;;;;0.37;0.37;;;;;;;21.16;34.65;100622.38;1735117;81;21053;-53
2021/09/16 10:25:49;;;;;;;1.92;0.30;;;;;;;21.15;34.21;100620.76;1743927;81;21512;-51
2021/09/16 10:28:18;;;;;;;1.27;0.42;;;;;;;21.17;34.13;100623.19;1732671;81;21562;-51
2021/09/16 10:30:50;;;;;;;0.20;0.10;;;;;;;21.23;34.38;100616.78;1723330;81;20929;-52
2021/09/16 10:33:28;;;;;;;0.50;0.10;;;;;;;21.29;34.06;100619.02;1742063;81;20946;-54
2021/09/16 10:36:06;;;;;;;0.28;0.10;;;;;;;21.33;34.05;100613.37;1738306;81;21034;-53
2021/09/16 10:38:42;;;;;;;0.88;0.10;;;;;;;21.33;33.80;100617.44;1735046;81;21069;-52
2021/09/16 10:41:28;;;;;;;0.40;0.20;;;;;;;21.31;33.62;100613.62;1739000;81;21590;-52
2021/09/16 10:44:08;;;;;;;1.00;0.10;;;;;;;21.28;33.80;100613.30;1730709;81;20997;-52
2021/09/16 10:46:44;;;;;;;0.78;0.10;;;;;;;21.22;33.86;100609.71;1651918;84;21100;-53
2021/09/16 10:49:28;;;;;;;0.47;0.10;;;;;;;21.18;34.17;100609.94;1735597;80;21585;-52
2021/09/16 10:51:59;;;;;;;0.05;0.05;;;;;;;21.16;34.22;100607.47;1736076;80;21598;-53
2021/09/16 10:54:48;;;;;;;0.75;0.10;;;;;;;21.17;34.31;100608.28;1734461;80;21519;-53
2021/09/16 10:57:34;;;;;;;0.10;0.10;;;;;;;21.19;34.43;100609.69;1722968;81;21079;-54
2021/09/16 11:00:12;;;;;;;1.57;0.10;;;;;;;21.22;34.05;100611.61;1734672;81;21572;-53
2021/09/16 11:02:48;;;;;;;0.53;0.10;;;;;;;21.19;33.73;100605.63;1730844;81;21013;-51
2021/09/16 11:05:20;;;;;;;0.20;0.10;;;;;;;21.10;34.18;100611.20;1734817;81;21029;-54
2021/09/16 11:07:52;;;;;;;4.67;0.40;;;;;;;21.03;34.77;100606.49;1720401;81;21020;-53
2021/09/16 11:10:31;;;;;;;0.35;0.20;;;;;;;21.05;34.73;100604.89;1742064;81;20954;-54
2021/09/16 11:13:05;;;;;;;0.25;0.20;;;;;;;21.06;34.61;100603.80;1722732;81;21527;-55
2021/09/16 11:15:35;;;;;;;1.25;0.20;;;;;;;21.04;34.92;100604.59;1726317;81;20981;-52
2021/09/16 11:18:13;;;;;;;2.45;0.47;;;;;;;21.03;34.96;100596.20;1655169;84;21050;-53
2021/09/16 11:20:45;;;;;;;3.75;0.20;;;;;;;21.03;35.15;100599.72;1741935;80;20960;-53
2021/09/16 11:23:14;;;;;;;2.98;0.42;;;;;;;21.03;34.69;100597.55;1749491;80;20938;-52
2021/09/16 11:25:44;;;;;;;2.50;0.40;;;;;;;21.04;34.61;100591.05;1737510;80;21029;-53
2021/09/16 11:28:12;;;;;;;1.15;0.20;;;;;;;21.09;34.70;100599.25;1745978;80;21460;-54
2021/09/16 11:30:44;;;;;;;1.77;0.25;;;;;;;21.10;34.77;100597.65;1700560;83;20986;-51